Time;durP1;ratioP1;P1;durP2;ratioP2;P2;SDS_P1;SDS_P2;PMS_P1;PMS_P2;Temp;Humidity;BMP_temperature;BMP_pressure;BME280_temperature;BME280_humidity;BME280_pressure;Samples;Min_cycle;Max_cycle;Signal;HPM_P1;HPM_P2
2024/03/06 00:01:19;;;;;;;;;42.33;31.33;;;;;-143.90;100.00;76510.06;4958673;28;108908;-71
2024/03/06 00:03:45;;;;;;;;;50.67;35.00;;;;;-143.90;100.00;76497.63;4960657;28;102243;-72
2024/03/06 00:06:12;;;;;;;;;43.67;37.67;;;;;-143.90;100.00;76524.53;4961477;28;102100;-72
2024/03/06 00:08:39;;;;;;;;;40.00;34.00;;;;;-143.90;100.00;76524.53;4955253;28;102086;-72
2024/03/06 00:11:06;;;;;;;;;41.00;35.67;;;;;-143.90;100.00;76549.34;4963070;28;104154;-72
2024/03/06 00:13:32;;;;;;;;;38.33;23.67;;;;;-143.90;100.00;76545.22;4963459;28;102663;-72
2024/03/06 00:15:59;;;;;;;;;50.00;32.33;;;;;-143.90;100.00;76549.34;4962503;28;102545;-72
2024/03/06 00:18:26;;;;;;;;;33.00;24.67;;;;;-143.90;100.00;76539.00;4964280;28;101972;-72
2024/03/06 00:20:53;;;;;;;;;32.67;30.67;;;;;-143.90;100.00;76549.34;4951740;28;103997;-72
2024/03/06 00:23:19;;;;;;;;;29.00;22.00;;;;;-143.90;100.00;76545.22;4965248;28;102101;-72
2024/03/06 00:25:46;;;;;;;;;40.33;25.33;;;;;-143.90;100.00;76549.34;4962708;28;102153;-72
2024/03/06 00:28:13;;;;;;;;;27.00;19.33;;;;;-143.90;100.00;76557.63;4965728;28;102153;-72
2024/03/06 00:30:40;;;;;;;;;31.00;24.67;;;;;-143.90;100.00;76561.75;4950871;28;104051;-71
2024/03/06 00:33:06;;;;;;;;;33.67;24.00;;;;;-143.90;100.00;76549.34;4964639;28;102430;-71
2024/03/06 00:35:33;;;;;;;;;22.67;18.67;;;;;-143.90;100.00;76547.28;4963911;28;101912;-72
2024/03/06 00:38:03;;;;;;;;;22.33;17.67;;;;;-143.90;100.00;76547.28;4967875;28;104232;-72
2024/03/06 00:40:33;;;;;;;;;16.25;13.25;;;;;-143.90;100.00;76545.22;4965605;28;104306;-72
2024/03/06 00:43:00;;;;;;;;;25.33;21.67;;;;;-143.90;100.00;76549.34;4961006;28;102619;-72
2024/03/06 00:45:26;;;;;;;;;15.75;12.00;;;;;-143.90;100.00;76551.41;4964783;28;102038;-72
2024/03/06 00:47:53;;;;;;;;;15.75;13.50;;;;;-143.90;100.00;76557.63;4968904;27;102316;-72
2024/03/06 00:50:21;;;;;;;;;20.50;19.00;;;;;-143.90;100.00;76563.81;4968256;28;104605;-72
2024/03/06 00:52:48;;;;;;;;;21.00;16.67;;;;;-143.90;100.00;76561.75;4956730;28;104073;-72
2024/03/06 00:55:16;;;;;;;;;21.00;19.00;;;;;-143.90;100.00;76561.75;4964702;28;104146;-72
2024/03/06 00:57:42;;;;;;;;;25.67;23.00;;;;;-143.90;100.00;76570.03;4963463;28;102312;-73
2024/03/06 01:00:13;;;;;;;;;28.67;24.33;;;;;-143.90;100.00;76576.22;4961932;27;103924;-72
2024/03/06 01:02:40;;;;;;;;;31.67;25.00;;;;;-143.90;100.00;76574.16;4953214;27;102200;-72
2024/03/06 01:05:07;;;;;;;;;24.67;21.67;;;;;-143.90;100.00;76586.56;4964737;27;101928;-72
2024/03/06 01:07:34;;;;;;;;;28.33;22.67;;;;;-143.90;100.00;76590.72;4964477;27;102398;-72
2024/03/06 01:10:01;;;;;;;;;22.00;21.00;;;;;-143.90;100.00;76596.91;4963803;28;103930;-72
2024/03/06 01:12:28;;;;;;;;;22.67;18.00;;;;;-143.90;100.00;76592.78;4960167;28;103159;-72
2024/03/06 01:14:56;;;;;;;;;20.33;15.33;;;;;-143.90;100.00;76584.50;4952511;28;102431;-73
2024/03/06 01:17:22;;;;;;;;;22.33;16.67;;;;;-143.90;100.00;76592.78;4961361;28;102349;-72
2024/03/06 01:19:49;;;;;;;;;19.33;16.00;;;;;-143.90;100.00;76594.84;4964960;28;103989;-72
2024/03/06 01:22:16;;;;;;;;;24.33;20.00;;;;;-143.90;100.00;76580.38;4965061;27;102018;-71
2024/03/06 01:24:43;;;;;;;;;21.33;16.00;;;;;-143.90;100.00;76592.78;4956781;27;101868;-72
2024/03/06 01:27:10;;;;;;;;;19.50;15.50;;;;;-143.90;100.00;76586.56;4964107;28;102525;-72
2024/03/06 01:29:37;;;;;;;;;23.00;17.00;;;;;-143.90;100.00;76590.72;4964375;28;104615;-72
2024/03/06 01:32:04;;;;;;;;;16.75;13.00;;;;;-143.90;100.00;76588.63;4964910;27;102301;-72
2024/03/06 01:34:30;;;;;;;;;24.67;22.33;;;;;-143.90;100.00;76586.56;4963885;28;102174;-72
2024/03/06 01:36:57;;;;;;;;;17.00;14.00;;;;;-143.90;100.00;76584.50;4952888;28;102592;-72
2024/03/06 01:39:24;;;;;;;;;12.00;8.00;;;;;-143.90;100.00;76584.50;4963021;28;104134;-71
2024/03/06 01:41:51;;;;;;;;;21.67;20.00;;;;;-143.90;100.00;76596.91;4963759;27;102377;-71
2024/03/06 01:44:18;;;;;;;;;21.67;17.67;;;;;-143.90;100.00;76605.19;4963031;28;102078;-71
2024/03/06 01:46:46;;;;;;;;;32.00;21.67;;;;;-143.90;100.00;76634.13;4954413;27;102344;-71
2024/03/06 01:49:15;;;;;;;;;34.00;29.33;;;;;-143.90;100.00;76642.41;4963370;28;103942;-71
2024/03/06 01:51:57;;;;;;;;;33.33;25.33;;;;;-143.90;100.00;76654.81;4958907;27;102629;-71
2024/03/06 01:54:25;;;;;;;;;27.33;18.00;;;;;-143.90;100.00;76644.47;4961309;27;102071;-71
2024/03/06 01:56:52;;;;;;;;;37.67;27.67;;;;;-143.90;100.00;76677.56;4957063;27;102548;-71
2024/03/06 01:59:25;;;;;;;;;35.33;26.33;;;;;-143.90;100.00;76687.91;4964450;28;108762;-71
2024/03/06 02:02:03;;;;;;;;;41.67;32.67;;;;;-143.90;100.00;76710.66;4957481;27;103751;-71
2024/03/06 02:04:31;;;;;;;;;34.00;30.00;;;;;-143.90;100.00;76696.19;4959680;28;103289;-71
2024/03/06 02:06:59;;;;;;;;;33.33;24.00;;;;;-143.90;100.00;76708.59;4959271;27;104105;-71
2024/03/06 02:09:25;;;;;;;;;30.00;24.00;;;;;-143.90;100.00;76694.13;4962646;27;103775;-71
2024/03/06 02:11:52;;;;;;;;;24.67;20.00;;;;;-143.90;100.00;76694.13;4962427;27;106121;-70
2024/03/06 02:14:19;;;;;;;;;30.33;24.00;;;;;-143.90;100.00;76718.94;4964746;27;102158;-71
2024/03/06 02:16:45;;;;;;;;;33.33;30.00;;;;;-143.90;100.00;76733.41;4954951;27;102374;-71
2024/03/06 02:19:12;;;;;;;;;27.00;21.33;;;;;-143.90;100.00;76716.88;4961870;27;104066;-72
2024/03/06 02:21:39;;;;;;;;;27.67;19.67;;;;;-143.90;100.00;76712.72;4964023;27;102005;-72
2024/03/06 02:24:05;;;;;;;;;37.00;30.00;;;;;-143.90;100.00;76731.34;4962989;27;102305;-72
2024/03/06 02:26:32;;;;;;;;;28.67;23.33;;;;;-143.90;100.00;76725.13;4962747;27;104574;-72
2024/03/06 02:28:59;;;;;;;;;25.00;24.67;;;;;-143.90;100.00;76735.47;4955163;27;104351;-72
2024/03/06 02:31:26;;;;;;;;;35.33;25.00;;;;;-143.90;100.00;76727.22;4962883;28;102467;-72
2024/03/06 02:33:53;;;;;;;;;18.67;12.00;;;;;-143.90;100.00;76716.88;4962598;28;102385;-72
2024/03/06 02:36:20;;;;;;;;;43.00;30.33;;;;;-143.90;100.00;76733.41;4966075;27;102507;-72
2024/03/06 02:38:47;;;;;;;;;49.00;42.00;;;;;-143.90;100.00;76756.16;4949725;28;104736;-71
2024/03/06 02:41:15;;;;;;;;;47.00;38.33;;;;;-143.90;100.00;76752.03;4963623;28;102013;-72
2024/03/06 02:43:42;;;;;;;;;46.33;32.00;;;;;-143.90;100.00;76737.53;4959811;27;102315;-72
2024/03/06 02:46:09;;;;;;;;;28.67;21.33;;;;;-143.90;100.00;76725.13;4964424;27;103923;-71
2024/03/06 02:48:36;;;;;;;;;30.67;23.67;;;;;-143.90;100.00;76731.34;4955646;28;103772;-71
2024/03/06 02:51:03;;;;;;;;;34.33;28.33;;;;;-143.90;100.00;76729.28;4955264;28;102708;-71
2024/03/06 02:53:30;;;;;;;;;38.33;30.67;;;;;-143.90;100.00;76729.28;4965724;28;102592;-71
2024/03/06 02:55:56;;;;;;;;;42.00;30.67;;;;;-143.90;100.00;76735.47;4964648;28;102222;-72
2024/03/06 02:58:23;;;;;;;;;48.33;35.00;;;;;-143.90;100.00;76739.63;4958804;28;103995;-71
2024/03/06 03:00:50;;;;;;;;;44.33;35.00;;;;;-143.90;100.00;76739.63;4950901;28;106135;-72
2024/03/06 03:03:16;;;;;;;;;28.00;27.00;;;;;-143.90;100.00;76743.75;4960816;28;101919;-72
2024/03/06 03:05:43;;;;;;;;;28.67;25.67;;;;;-143.90;100.00;76735.47;4965737;28;103732;-72
2024/03/06 03:08:10;;;;;;;;;38.67;28.33;;;;;-143.90;100.00;76739.63;4961570;28;104833;-72
2024/03/06 03:10:37;;;;;;;;;51.00;37.67;;;;;-143.90;100.00;76741.69;4957738;28;102699;-72
2024/03/06 03:13:04;;;;;;;;;62.33;41.00;;;;;-143.90;100.00;76764.44;4959735;28;101935;-72
2024/03/06 03:15:32;;;;;;;;;44.00;39.00;;;;;-143.90;100.00;76768.56;4961072;28;102177;-72
2024/03/06 03:17:59;;;;;;;;;35.00;28.33;;;;;-143.90;100.00;76752.03;4965348;28;104009;-72
2024/03/06 03:20:26;;;;;;;;;30.67;24.00;;;;;-143.90;100.00;76747.88;4960778;28;102570;-72
2024/03/06 03:22:53;;;;;;;;;36.33;27.00;;;;;-143.90;100.00;76743.75;4952597;28;102349;-72
2024/03/06 03:25:21;;;;;;;;;37.67;28.33;;;;;-143.90;100.00;76747.88;4962237;28;102077;-72
2024/03/06 03:27:48;;;;;;;;;22.00;19.00;;;;;-143.90;100.00;76733.41;4962907;28;103986;-72
2024/03/06 03:30:16;;;;;;;;;36.33;27.67;;;;;-143.90;100.00;76756.16;4960959;28;107107;-72
2024/03/06 03:32:42;;;;;;;;;37.67;28.33;;;;;-143.90;100.00;76760.28;4950652;27;102151;-72
2024/03/06 03:35:09;;;;;;;;;31.00;28.00;;;;;-143.90;100.00;76747.88;4958290;28;102117;-72
2024/03/06 03:37:36;;;;;;;;;42.67;32.00;;;;;-143.90;100.00;76764.44;4960183;28;104100;-72
2024/03/06 03:40:03;;;;;;;;;37.67;31.00;;;;;-143.90;100.00;76768.56;4963358;28;102255;-72
2024/03/06 03:42:30;;;;;;;;;28.67;27.33;;;;;-143.90;100.00;76766.50;4962082;28;102481;-72
2024/03/06 03:44:57;;;;;;;;;26.67;20.00;;;;;-143.90;100.00;76762.38;4953422;28;102514;-72
2024/03/06 03:47:24;;;;;;;;;42.00;30.00;;;;;-143.90;100.00;76774.78;4965515;28;104897;-72
2024/03/06 03:49:51;;;;;;;;;29.33;24.33;;;;;-143.90;100.00;76770.63;4961686;28;102299;-72
2024/03/06 03:52:35;;;;;;;;;27.33;22.00;;;;;-143.90;100.00;76764.44;4954528;28;102126;-72
2024/03/06 03:55:03;;;;;;;;;26.67;26.33;;;;;-143.90;100.00;76789.25;4958177;28;102156;-72
2024/03/06 03:57:30;;;;;;;;;21.00;19.00;;;;;-143.90;100.00;76778.91;4961025;27;104040;-72
2024/03/06 03:59:57;;;;;;;;;20.00;17.33;;;;;-143.90;100.00;76768.56;4961205;28;102097;-73
2024/03/06 04:02:24;;;;;;;;;26.00;23.67;;;;;-143.90;100.00;76768.56;4963830;28;102591;-71
2024/03/06 04:04:50;;;;;;;;;22.33;19.33;;;;;-143.90;100.00;76768.56;4954538;28;102468;-71
2024/03/06 04:07:18;;;;;;;;;34.67;26.00;;;;;-143.90;100.00;76768.56;4964149;28;104182;-73
2024/03/06 04:09:47;;;;;;;;;19.67;11.33;;;;;-143.90;100.00;76764.44;4964314;28;102605;-73
2024/03/06 04:12:14;;;;;;;;;21.33;18.67;;;;;-143.90;100.00;76760.28;4965797;28;102063;-72
2024/03/06 04:14:41;;;;;;;;;30.67;23.00;;;;;-143.90;100.00;76754.09;4956979;28;102274;-71
2024/03/06 04:17:08;;;;;;;;;20.67;19.00;;;;;-143.90;100.00;76756.16;4966203;28;104256;-72
2024/03/06 04:19:35;;;;;;;;;17.33;15.00;;;;;-143.90;100.00;76756.16;4966051;28;102825;-72
2024/03/06 04:22:02;;;;;;;;;32.67;22.33;;;;;-143.90;100.00;76766.50;4968719;28;102431;-71
2024/03/06 04:24:29;;;;;;;;;25.00;20.33;;;;;-143.90;100.00;76766.50;4968668;28;101920;-72
2024/03/06 04:26:55;;;;;;;;;65.00;43.00;;;;;-143.90;100.00;76797.53;4957088;28;103766;-71
2024/03/06 04:29:22;;;;;;;;;65.67;45.33;;;;;-143.90;100.00;76801.66;4968570;28;102651;-71
2024/03/06 04:31:50;;;;;;;;;50.67;44.00;;;;;-143.90;100.00;76814.06;4966083;28;104157;-72
2024/03/06 04:34:17;;;;;;;;;44.00;37.67;;;;;-143.90;100.00;76814.06;4972033;28;102624;-71
2024/03/06 04:36:43;;;;;;;;;49.00;42.00;;;;;-143.90;100.00;76826.47;4960886;28;104569;-71
2024/03/06 04:39:10;;;;;;;;;46.67;35.00;;;;;-143.90;100.00;76818.22;4964334;28;102220;-71
2024/03/06 04:41:37;;;;;;;;;48.33;42.00;;;;;-143.90;100.00;76830.63;4966664;28;102511;-72
2024/03/06 04:44:03;;;;;;;;;51.00;40.33;;;;;-143.90;100.00;76838.88;4964620;28;103032;-72
2024/03/06 04:46:30;;;;;;;;;39.00;31.33;;;;;-143.90;100.00;76834.75;4964617;28;104776;-72
2024/03/06 04:48:57;;;;;;;;;50.33;41.00;;;;;-143.90;100.00;76834.75;4955640;28;102380;-72
2024/03/06 04:51:24;;;;;;;;;43.33;36.33;;;;;-143.90;100.00;76828.53;4967114;28;102092;-73
2024/03/06 04:53:50;;;;;;;;;38.00;29.67;;;;;-143.90;100.00;76836.81;4963637;28;102067;-72
2024/03/06 04:56:18;;;;;;;;;39.67;37.67;;;;;-143.90;100.00;76849.22;4963441;28;104055;-72
2024/03/06 04:58:46;;;;;;;;;41.00;34.33;;;;;-143.90;100.00;76832.69;4956012;28;103875;-72
2024/03/06 05:01:13;;;;;;;;;30.00;26.00;;;;;-143.90;100.00;76820.28;4964532;28;102054;-72
2024/03/06 05:03:39;;;;;;;;;36.00;26.67;;;;;-143.90;100.00;76826.47;4968280;28;102389;-72
2024/03/06 05:06:23;;;;;;;;;32.00;26.67;;;;;-143.90;100.00;76809.94;4966934;27;107695;-72
2024/03/06 05:09:07;;;;;;;;;34.00;22.33;;;;;-143.90;100.00;76803.72;4965192;28;102373;-72
2024/03/06 05:11:53;;;;;;;;;45.67;33.67;;;;;-143.90;100.00;76816.13;4960330;28;104683;-72
2024/03/06 05:14:37;;;;;;;;;36.00;28.00;;;;;-143.90;100.00;76807.88;4957397;27;102499;-72
2024/03/06 05:17:23;;;;;;;;;30.33;25.67;;;;;-143.90;100.00;76797.53;4963475;28;107021;-72
2024/03/06 05:20:07;;;;;;;;;21.00;18.33;;;;;-143.90;100.00;76795.47;4962294;28;102867;-72
2024/03/06 05:22:51;;;;;;;;;62.67;49.00;;;;;-143.90;100.00;76809.94;4953801;28;102782;-71
2024/03/06 05:25:35;;;;;;;;;58.00;41.00;;;;;-143.90;100.00;76809.94;4964607;28;102582;-72
2024/03/06 05:28:20;;;;;;;;;64.00;46.33;;;;;-143.90;100.00;76805.78;4965749;28;102360;-73
2024/03/06 05:31:18;;;;;;;;;45.67;41.00;;;;;-143.90;100.00;76818.22;4960259;28;102374;-71
2024/03/06 05:34:04;;;;;;;;;51.00;41.33;;;;;-143.90;100.00;76809.94;4965990;28;102256;-71
2024/03/06 05:36:49;;;;;;;;;51.67;34.00;;;;;-143.90;100.00;76805.78;4957661;28;102218;-72
2024/03/06 05:39:34;;;;;;;;;40.33;32.33;;;;;-143.90;100.00;76797.53;4962138;28;107510;-72
2024/03/06 05:42:17;;;;;;;;;27.00;24.67;;;;;-143.90;100.00;76789.25;4962243;28;102442;-72
2024/03/06 05:45:04;;;;;;;;;22.67;19.67;;;;;-143.90;100.00;76774.78;4958348;28;102652;-72
2024/03/06 05:47:49;;;;;;;;;22.33;17.67;;;;;-143.90;100.00;76764.44;4966198;28;102391;-72
2024/03/06 05:50:33;;;;;;;;;26.00;19.00;;;;;-143.90;100.00;76760.28;4960342;28;106937;-73
2024/03/06 05:53:18;;;;;;;;;22.00;19.67;;;;;-143.90;100.00;76747.88;4961403;28;102164;-72
2024/03/06 05:56:03;;;;;;;;;25.33;21.33;;;;;-143.90;100.00;76754.09;4962157;28;102619;-72
2024/03/06 05:58:49;;;;;;;;;21.00;15.67;;;;;-143.90;100.00;76743.75;4956060;28;102026;-72
2024/03/06 06:01:20;;;;;;;;;45.67;33.33;;;;;-143.90;100.00;76756.16;4964317;28;104005;-72
2024/03/06 06:03:50;;;;;;;;;33.00;23.67;;;;;-143.90;100.00;76752.03;4964340;28;102497;-72
2024/03/06 06:06:21;;;;;;;;;19.67;15.33;;;;;-143.90;100.00;76739.63;4963686;28;102416;-72
2024/03/06 06:08:47;;;;;;;;;42.00;32.33;;;;;-143.90;100.00;76749.97;4956190;28;102462;-73
2024/03/06 06:11:14;;;;;;;;;33.67;25.67;;;;;-143.90;100.00;76739.63;4964744;28;104178;-72
2024/03/06 06:13:41;;;;;;;;;37.33;26.33;;;;;-143.90;100.00;76731.34;4965061;28;102640;-72
2024/03/06 06:16:07;;;;;;;;;29.33;24.33;;;;;-143.90;100.00;76723.06;4966714;28;102329;-71
2024/03/06 06:18:34;;;;;;;;;23.00;16.67;;;;;-143.90;100.00;76712.72;4963140;28;104525;-72
2024/03/06 06:21:03;;;;;;;;;20.67;19.00;;;;;-143.90;100.00;76696.19;4960829;28;103776;-72
2024/03/06 06:23:30;;;;;;;;;21.67;21.00;;;;;-143.90;100.00;76704.47;4963799;28;102528;-72
2024/03/06 06:25:57;;;;;;;;;33.00;20.33;;;;;-143.90;100.00;76698.25;4964727;28;102503;-72
2024/03/06 06:28:24;;;;;;;;;21.67;15.67;;;;;-143.90;100.00;76687.91;4966820;28;102108;-72
2024/03/06 06:30:52;;;;;;;;;49.33;39.67;;;;;-143.90;100.00;76689.97;4951559;28;104075;-72
2024/03/06 06:33:20;;;;;;;;;42.33;34.00;;;;;-143.90;100.00;76685.84;4960383;28;103267;-72
2024/03/06 06:35:47;;;;;;;;;25.33;21.33;;;;;-143.90;100.00;76685.84;4964864;28;102577;-72
2024/03/06 06:38:14;;;;;;;;;33.67;23.67;;;;;-143.90;100.00;76673.44;4964062;28;102089;-72
2024/03/06 06:40:41;;;;;;;;;30.67;25.33;;;;;-143.90;100.00;76671.38;4953088;28;106306;-72
2024/03/06 06:43:08;;;;;;;;;26.00;20.00;;;;;-143.90;100.00;76656.88;4962762;28;102289;-72
2024/03/06 06:45:34;;;;;;;;;34.00;29.67;;;;;-143.90;100.00;76656.88;4964251;28;103469;-72
2024/03/06 06:48:01;;;;;;;;;28.00;24.00;;;;;-143.90;100.00;76642.41;4964124;27;102465;-72
2024/03/06 06:50:28;;;;;;;;;28.33;25.67;;;;;-143.90;100.00;76632.06;4964505;28;103942;-72
2024/03/06 06:52:55;;;;;;;;;21.33;17.67;;;;;-143.90;100.00;76613.47;4953872;28;102474;-72
2024/03/06 06:55:24;;;;;;;;;30.67;22.00;;;;;-143.90;100.00;76623.78;4964156;28;102940;-73
2024/03/06 06:57:51;;;;;;;;;43.33;29.33;;;;;-143.90;100.00;76630.00;4966279;28;102293;-72
2024/03/06 07:00:18;;;;;;;;;27.00;21.00;;;;;-143.90;100.00;76607.25;4963254;28;104052;-72
2024/03/06 07:02:45;;;;;;;;;29.33;20.33;;;;;-143.90;100.00;76611.38;4955076;28;102772;-73
2024/03/06 07:05:12;;;;;;;;;30.00;24.00;;;;;-143.90;100.00;76598.97;4962185;28;102841;-73
2024/03/06 07:07:39;;;;;;;;;27.33;21.33;;;;;-143.90;100.00;76598.97;4962566;28;101979;-72
2024/03/06 07:10:08;;;;;;;;;18.50;16.50;;;;;-143.90;100.00;76586.56;4963396;28;103658;-72
2024/03/06 07:12:36;;;;;;;;;51.67;41.33;;;;;-143.90;100.00;76627.94;4956108;28;101968;-72
2024/03/06 07:15:03;;;;;;;;;54.33;39.33;;;;;-143.90;100.00;76627.94;4958232;28;102439;-72
2024/03/06 07:17:30;;;;;;;;;55.33;36.00;;;;;-143.90;100.00;76617.59;4963119;28;102097;-72
2024/03/06 07:19:56;;;;;;;;;58.33;43.00;;;;;-143.90;100.00;76607.25;4965957;28;103962;-72
2024/03/06 07:22:23;;;;;;;;;15.33;12.33;;;;;-143.90;100.00;76590.72;4961095;28;102711;-72
2024/03/06 07:24:50;;;;;;;;;35.00;28.33;;;;;-143.90;100.00;76584.50;4954103;28;102258;-72
2024/03/06 07:27:18;;;;;;;;;51.33;34.00;;;;;-143.90;100.00;76586.56;4964735;28;102534;-71
2024/03/06 07:29:45;;;;;;;;;51.00;32.33;;;;;-143.90;100.00;76601.03;4962356;28;104094;-71
2024/03/06 07:32:11;;;;;;;;;40.67;37.33;;;;;-143.90;100.00;76584.50;4962517;28;102563;-71
2024/03/06 07:34:38;;;;;;;;;37.00;28.33;;;;;-143.90;100.00;76570.03;4960242;28;102157;-72
2024/03/06 07:37:05;;;;;;;;;47.00;34.67;;;;;-143.90;100.00;76565.88;4964983;28;102089;-71
2024/03/06 07:39:32;;;;;;;;;46.33;35.33;;;;;-143.90;100.00;76559.69;4962103;28;104177;-71
2024/03/06 07:41:59;;;;;;;;;45.67;34.00;;;;;-143.90;100.00;76570.03;4963111;28;103219;-72
2024/03/06 07:44:25;;;;;;;;;69.00;48.00;;;;;-143.90;100.00;76598.97;4965052;28;102204;-72
2024/03/06 07:46:54;;;;;;;;;59.00;41.33;;;;;-143.90;100.00;76572.09;4954586;28;102503;-73
2024/03/06 07:49:23;;;;;;;;;55.00;40.00;;;;;-143.90;100.00;76555.53;4962390;28;104001;-72
2024/03/06 07:51:50;;;;;;;;;45.33;36.00;;;;;-143.90;100.00;76536.94;4964095;28;102436;-72
2024/03/06 07:54:17;;;;;;;;;33.33;23.67;;;;;-143.90;100.00;76518.31;4962697;28;102552;-71
2024/03/06 07:56:44;;;;;;;;;52.00;41.33;;;;;-143.90;100.00;76524.53;4955255;28;102312;-72
2024/03/06 07:59:12;;;;;;;;;45.67;33.33;;;;;-143.90;100.00;76514.19;4962347;28;103959;-71
2024/03/06 08:01:40;;;;;;;;;58.00;42.33;;;;;-143.90;100.00;76526.59;4963543;27;102526;-72
2024/03/06 08:04:07;;;;;;;;;62.00;44.00;;;;;-143.90;100.00;76536.94;4960879;28;102103;-71
2024/03/06 08:06:37;;;;;;;;;52.00;42.00;;;;;-143.90;100.00;76516.25;4957012;28;102798;-72
2024/03/06 08:09:05;;;;;;;;;56.67;42.67;;;;;-143.90;100.00;76503.84;4953982;28;103963;-72
2024/03/06 08:11:33;;;;;;;;;71.33;48.00;;;;;-143.90;100.00;76541.06;4960188;28;102918;-72
2024/03/06 08:14:00;;;;;;;;;57.33;40.67;;;;;-143.90;100.00;76545.22;4962967;28;101863;-73
2024/03/06 08:16:28;;;;;;;;;64.00;46.00;;;;;-143.90;100.00;76547.28;4964444;28;102027;-73
2024/03/06 08:18:57;;;;;;;;;63.33;45.33;;;;;-143.90;100.00;76572.09;4952931;28;108940;-72
2024/03/06 08:21:23;;;;;;;;;58.33;42.33;;;;;-143.90;100.00;76536.94;4960416;28;102498;-73
2024/03/06 08:23:50;;;;;;;;;47.33;41.00;;;;;-143.90;100.00;76514.19;4964737;28;102283;-72
2024/03/06 08:26:18;;;;;;;;;57.67;39.00;;;;;-143.90;100.00;76485.22;4963756;28;102253;-72
2024/03/06 08:28:45;;;;;;;;;52.33;39.00;;;;;-143.90;100.00;76491.44;4954581;28;104874;-71
2024/03/06 08:31:12;;;;;;;;;54.33;38.67;;;;;-143.90;100.00;76476.97;4962588;28;102511;-71
2024/03/06 08:33:39;;;;;;;;;48.67;39.00;;;;;-143.90;100.00;76487.31;4965219;28;102203;-70
2024/03/06 08:36:06;;;;;;;;;37.67;29.00;;;;;-143.90;100.00;76458.34;4963251;28;102059;-72
2024/03/06 08:38:32;;;;;;;;;51.33;41.00;;;;;-143.90;100.00;76495.56;4961088;28;104005;-72
2024/03/06 08:40:59;;;;;;;;;64.00;45.00;;;;;-143.90;100.00;76505.91;4957920;28;102311;-73
2024/03/06 08:43:26;;;;;;;;;44.67;38.00;;;;;-143.90;100.00;76481.09;4965262;28;101952;-73
2024/03/06 08:45:53;;;;;;;;;38.67;31.67;;;;;-143.90;100.00;76429.41;4964269;28;102805;-73
2024/03/06 08:48:21;;;;;;;;;36.25;29.50;;;;;-143.90;100.00;76400.44;4962649;28;104239;-72
2024/03/06 08:50:48;;;;;;;;;23.25;16.75;;;;;-143.90;100.00;76392.16;4950137;28;102350;-72
2024/03/06 08:53:16;;;;;;;;;49.50;33.50;;;;;-143.90;100.00;76429.41;4962294;28;104367;-72
2024/03/06 08:55:42;;;;;;;;;57.67;44.67;;;;;-143.90;100.00;76468.69;4964980;28;102019;-73
2024/03/06 08:58:09;;;;;;;;;51.00;38.67;;;;;-143.90;100.00;76445.94;4964012;28;104256;-72
2024/03/06 09:00:37;;;;;;;;;60.00;41.00;;;;;-143.90;100.00;76423.19;4960227;28;102096;-72
2024/03/06 09:03:05;;;;;;;;;43.50;34.00;;;;;-143.90;100.00;76406.66;4962242;28;101969;-72
2024/03/06 09:05:32;;;;;;;;;48.00;38.33;;;;;-143.90;100.00;76450.06;4965413;28;102442;-72
2024/03/06 09:07:58;;;;;;;;;49.00;38.00;;;;;-143.90;100.00;76448.00;4965825;28;104000;-71
2024/03/06 09:10:28;;;;;;;;;46.67;39.33;;;;;-143.90;100.00;76441.81;4962151;28;102381;-72
2024/03/06 09:12:55;;;;;;;;;38.00;33.25;;;;;-143.90;100.00;76425.25;4952646;28;104415;-72
2024/03/06 09:15:21;;;;;;;;;39.50;29.75;;;;;-143.90;100.00;76433.53;4963149;28;102406;-71
2024/03/06 09:17:48;;;;;;;;;36.00;33.25;;;;;-143.90;100.00;76419.06;4965037;28;104327;-72
2024/03/06 09:20:16;;;;;;;;;51.67;36.00;;;;;-143.90;100.00;76419.06;4965125;27;102279;-72
2024/03/06 09:22:43;;;;;;;;;46.00;36.00;;;;;-143.90;100.00;76406.66;4954884;28;102994;-72
2024/03/06 09:25:13;;;;;;;;;42.50;35.50;;;;;-143.90;100.00;76396.31;4964312;28;102046;-72
2024/03/06 09:27:42;;;;;;;;;40.00;32.33;;;;;-143.90;100.00;76381.84;4958094;28;103955;-72
2024/03/06 09:30:09;;;;;;;;;37.75;33.75;;;;;-143.90;100.00;76388.03;4961841;28;102313;-72
2024/03/06 09:32:37;;;;;;;;;41.75;34.00;;;;;-143.90;100.00;76375.63;4956886;28;101939;-74
2024/03/06 09:35:06;;;;;;;;;53.75;38.50;;;;;-143.90;100.00;76381.84;4963926;27;102389;-72
2024/03/06 09:37:33;;;;;;;;;37.25;34.75;;;;;-143.90;100.00;76390.09;4964588;28;103998;-73
2024/03/06 09:39:59;;;;;;;;;45.00;36.25;;;;;-143.90;100.00;76385.97;4967063;27;102187;-73
2024/03/06 09:42:26;;;;;;;;;48.00;34.00;;;;;-143.90;100.00;76383.91;4966091;27;102049;-72
2024/03/06 09:44:53;;;;;;;;;43.50;35.25;;;;;-143.90;100.00;76388.03;4956083;28;102250;-73
2024/03/06 09:47:25;;;;;;;;;45.00;37.50;;;;;-143.90;100.00;76404.56;4961726;28;104119;-73
2024/03/06 09:49:56;;;;;;;;;48.00;39.00;;;;;-143.90;100.00;76419.06;4966343;27;102160;-72
2024/03/06 09:52:27;;;;;;;;;38.25;30.50;;;;;-143.90;100.00;76396.31;4964661;28;102666;-72
2024/03/06 09:54:57;;;;;;;;;51.75;32.75;;;;;-143.90;100.00;76400.44;4954464;28;102950;-73
2024/03/06 09:57:23;;;;;;;;;39.00;34.00;;;;;-143.90;100.00;76385.97;4963796;28;104064;-72
2024/03/06 09:59:51;;;;;;;;;38.75;33.00;;;;;-143.90;100.00;76396.31;4965477;28;105316;-72
2024/03/06 10:02:43;;;;;;;;;42.50;36.00;;;;;-143.90;100.00;76381.84;4964826;27;102366;-72
2024/03/06 10:05:32;;;;;;;;;54.50;38.00;;;;;-143.90;100.00;76388.03;4961918;28;102506;-72
2024/03/06 10:08:00;;;;;;;;;51.25;38.75;;;;;-143.90;100.00;76375.63;4963965;28;108777;-72
2024/03/06 10:10:27;;;;;;;;;38.25;31.25;;;;;-143.90;100.00;76363.22;4962843;28;102455;-72
2024/03/06 10:12:54;;;;;;;;;39.75;31.75;;;;;-143.90;100.00;76354.94;4954441;28;105010;-72
2024/03/06 10:15:22;;;;;;;;;42.75;35.00;;;;;-143.90;100.00;76361.16;4965571;28;105838;-72
2024/03/06 10:17:49;;;;;;;;;43.25;33.25;;;;;-143.90;100.00;76371.50;4963907;28;104202;-73
2024/03/06 10:20:23;;;;;;;;;46.33;39.00;;;;;-143.90;100.00;76414.91;4964855;28;102177;-72
2024/03/06 10:22:52;;;;;;;;;55.67;43.00;;;;;-143.90;100.00;76421.13;4954397;28;103260;-73
2024/03/06 10:25:25;;;;;;;;;50.33;40.00;;;;;-143.90;100.00;76433.53;4963548;28;102637;-72
2024/03/06 10:28:12;;;;;;;;;42.67;37.33;;;;;-143.90;100.00;76474.91;4964523;28;104092;-73
2024/03/06 10:30:44;;;;;;;;;60.33;46.00;;;;;-143.90;100.00;76472.81;4955887;28;102132;-73
2024/03/06 10:33:12;;;;;;;;;58.00;34.67;;;;;-143.90;100.00;76470.75;4966928;28;102201;-72
2024/03/06 10:35:41;;;;;;;;;52.00;38.67;;;;;-143.90;100.00;76507.97;4962303;28;102540;-72
2024/03/06 10:38:09;;;;;;;;;52.00;39.00;;;;;-143.90;100.00;76497.63;4961284;28;103992;-72
2024/03/06 10:40:41;;;;;;;;;62.00;45.00;;;;;-143.90;100.00;76472.81;4957008;28;102232;-72
2024/03/06 10:43:09;;;;;;;;;52.00;40.67;;;;;-143.90;100.00;76474.91;4957552;28;102220;-72
2024/03/06 10:45:50;;;;;;;;;46.33;38.33;;;;;-143.90;100.00;76462.47;4960254;28;102229;-71
2024/03/06 10:48:18;;;;;;;;;50.50;36.00;;;;;-143.90;100.00;76443.88;4956456;28;104062;-72
2024/03/06 10:50:47;;;;;;;;;45.33;37.00;;;;;-143.90;100.00;76441.81;4951709;28;102676;-71
2024/03/06 10:53:16;;;;;;;;;50.00;41.00;;;;;-143.90;100.00;76450.06;4963020;28;102445;-72
2024/03/06 10:55:49;;;;;;;;;55.67;41.00;;;;;-143.90;100.00;76458.34;4964945;28;102380;-72